Time;durP1;ratioP1;P1;durP2;ratioP2;P2;SDS_P1;SDS_P2;PMS_P1;PMS_P2;Temp;Humidity;BMP_temperature;BMP_pressure;BME280_temperature;BME280_humidity;BME280_pressure;Samples;Min_cycle;Max_cycle;Signal;HPM_P1;HPM_P2
2023/12/17 00:00:53;;;;;;;7.95;2.60;;;14.00;1.00;;;;;;4971234;28;20582;-35
2023/12/17 00:03:18;;;;;;;11.02;3.55;;;13.60;1.00;;;;;;4973793;28;20122;-35
2023/12/17 00:05:44;;;;;;;9.00;3.20;;;14.00;1.00;;;;;;4970550;28;20039;-35
2023/12/17 00:08:09;;;;;;;7.68;3.10;;;13.90;1.00;;;;;;4970995;28;20092;-35
2023/12/17 00:10:35;;;;;;;8.75;2.88;;;14.10;1.00;;;;;;4970051;28;20031;-36
2023/12/17 00:13:00;;;;;;;8.48;2.85;;;13.90;1.00;;;;;;4973313;28;20097;-35
2023/12/17 00:15:26;;;;;;;9.70;3.08;;;13.10;1.00;;;;;;4969146;28;20041;-37
2023/12/17 00:17:52;;;;;;;7.22;2.40;;;13.20;1.00;;;;;;4978090;28;20081;-37
2023/12/17 00:20:17;;;;;;;7.30;3.03;;;13.50;1.00;;;;;;4968851;28;20129;-35
2023/12/17 00:22:44;;;;;;;9.38;3.17;;;;;;;;;;4974232;28;20043;-35
2023/12/17 00:25:10;;;;;;;9.10;2.92;;;13.50;1.00;;;;;;4963489;28;20074;-35
2023/12/17 00:27:35;;;;;;;8.60;2.85;;;13.80;1.00;;;;;;4969325;28;20323;-35
2023/12/17 00:30:01;;;;;;;9.20;3.25;;;14.00;1.00;;;;;;4970437;28;20070;-38
2023/12/17 00:32:27;;;;;;;7.15;2.78;;;13.50;1.00;;;;;;4973118;28;20486;-37
2023/12/17 00:34:52;;;;;;;7.97;3.08;;;14.00;1.00;;;;;;4969953;28;20042;-36
2023/12/17 00:37:18;;;;;;;7.13;2.50;;;13.90;1.00;;;;;;4969658;28;20392;-35
2023/12/17 00:39:43;;;;;;;6.53;2.55;;;14.30;1.00;;;;;;4964153;28;20074;-35
2023/12/17 00:42:09;;;;;;;8.18;2.85;;;13.20;1.00;;;;;;4973310;28;20038;-35
2023/12/17 00:44:34;;;;;;;7.97;2.60;;;13.30;1.00;;;;;;4968635;28;20802;-35
2023/12/17 00:47:02;;;;;;;8.20;2.90;;;13.90;1.00;;;;;;4969935;28;20035;-35
2023/12/17 00:49:28;;;;;;;9.35;2.95;;;13.30;1.00;;;;;;4964477;28;20053;-37
2023/12/17 00:51:53;;;;;;;7.22;2.70;;;13.70;1.00;;;;;;4971141;28;20043;-35
2023/12/17 00:54:19;;;;;;;7.60;2.63;;;14.00;1.00;;;;;;4969904;28;20035;-36
2023/12/17 00:56:45;;;;;;;8.52;2.60;;;13.10;1.00;;;;;;4966386;28;20046;-35
2023/12/17 00:59:10;;;;;;;6.43;2.60;;;13.60;1.00;;;;;;4973893;28;20038;-36
2023/12/17 01:01:38;;;;;;;7.88;2.53;;;13.80;1.00;;;;;;4974005;28;20046;-35
2023/12/17 01:04:03;;;;;;;7.88;2.45;;;13.30;1.00;;;;;;4970451;28;20114;-36
2023/12/17 01:06:29;;;;;;;6.70;2.50;;;14.00;1.00;;;;;;4972977;28;20162;-36
2023/12/17 01:08:54;;;;;;;7.47;2.40;;;14.10;1.00;;;;;;4968914;28;20070;-37
2023/12/17 01:11:20;;;;;;;7.05;2.60;;;13.40;1.00;;;;;;4973414;28;20045;-36
2023/12/17 01:13:45;;;;;;;9.35;2.45;;;14.10;1.00;;;;;;4976037;28;20465;-35
2023/12/17 01:16:11;;;;;;;7.05;2.63;;;13.80;1.00;;;;;;4972437;28;20042;-39
2023/12/17 01:18:37;;;;;;;9.68;2.80;;;13.50;1.00;;;;;;4971866;28;20043;-35
2023/12/17 01:21:03;;;;;;;6.35;2.42;;;14.20;1.00;;;;;;4973692;28;20057;-35
2023/12/17 01:23:28;;;;;;;6.90;2.42;;;14.00;1.00;;;;;;4977006;28;20113;-35
2023/12/17 01:25:54;;;;;;;10.07;3.22;;;13.90;1.00;;;;;;4988477;28;20073;-35
2023/12/17 01:28:19;;;;;;;6.60;2.80;;;13.60;1.00;;;;;;4972817;28;20042;-39
2023/12/17 01:30:45;;;;;;;7.30;2.55;;;13.90;1.00;;;;;;4968976;28;20114;-35
2023/12/17 01:33:10;;;;;;;9.13;2.95;;;13.90;1.00;;;;;;4973631;28;20475;-35
2023/12/17 01:35:36;;;;;;;8.43;2.88;;;14.00;1.00;;;;;;4972638;28;20125;-38
2023/12/17 01:38:02;;;;;;;9.25;3.22;;;13.60;1.00;;;;;;4973231;28;20042;-35
2023/12/17 01:40:28;;;;;;;8.48;2.70;;;13.30;1.00;;;;;;4971477;28;20114;-35
2023/12/17 01:42:53;;;;;;;5.85;2.50;;;13.30;1.00;;;;;;4976547;28;20046;-37
2023/12/17 01:45:19;;;;;;;7.63;2.60;;;13.30;1.00;;;;;;4972774;28;20049;-36
2023/12/17 01:47:45;;;;;;;12.23;3.17;;;13.80;1.00;;;;;;4971193;28;20516;-35
2023/12/17 01:50:11;;;;;;;11.75;3.63;;;13.50;1.00;;;;;;4972122;28;20046;-36
2023/12/17 01:52:38;;;;;;;9.02;2.53;;;13.10;1.00;;;;;;4974218;28;20043;-36
2023/12/17 01:55:05;;;;;;;8.07;3.45;;;14.00;1.00;;;;;;4972791;28;20039;-36
2023/12/17 01:57:31;;;;;;;8.05;2.85;;;13.60;1.00;;;;;;4972743;28;20117;-35
2023/12/17 01:59:57;;;;;;;10.10;2.75;;;13.50;1.00;;;;;;4973046;28;20118;-38
2023/12/17 02:02:23;;;;;;;7.60;2.40;;;13.20;1.00;;;;;;4974062;28;20521;-40
2023/12/17 02:04:49;;;;;;;8.85;2.65;;;13.00;1.00;;;;;;4972929;28;20085;-36
2023/12/17 02:07:16;;;;;;;11.38;2.97;;;13.80;1.00;;;;;;4971224;28;20050;-35
2023/12/17 02:09:42;;;;;;;8.15;2.45;;;13.20;1.00;;;;;;4952653;28;20132;-37
2023/12/17 02:12:07;;;;;;;6.25;2.72;;;13.70;1.00;;;;;;4974686;28;20509;-36
2023/12/17 02:14:33;;;;;;;7.13;2.10;;;13.70;1.00;;;;;;4968829;28;20486;-36
2023/12/17 02:16:59;;;;;;;9.40;2.78;;;13.80;1.00;;;;;;4971098;28;20877;-39
2023/12/17 02:19:24;;;;;;;9.80;2.83;;;13.70;1.00;;;;;;4972189;28;20413;-38
2023/12/17 02:21:50;;;;;;;5.68;2.42;;;13.60;1.00;;;;;;4973144;28;20521;-35
2023/12/17 02:24:16;;;;;;;5.30;2.28;;;13.40;1.00;;;;;;4973095;28;20142;-35
2023/12/17 02:26:42;;;;;;;7.88;2.45;;;13.00;1.00;;;;;;4971847;28;20042;-35
2023/12/17 02:29:08;;;;;;;7.63;2.47;;;14.00;1.00;;;;;;4971872;28;20038;-41
2023/12/17 02:31:33;;;;;;;7.57;2.90;;;13.60;1.00;;;;;;4971005;28;20042;-37
2023/12/17 02:33:59;;;;;;;7.22;2.63;;;13.80;1.00;;;;;;4973321;28;20060;-35
2023/12/17 02:36:24;;;;;;;8.50;2.90;;;13.60;1.00;;;;;;4972045;28;20507;-38
2023/12/17 02:38:50;;;;;;;9.50;2.55;;;13.70;1.00;;;;;;4968224;28;20031;-37
2023/12/17 02:41:15;;;;;;;6.72;2.38;;;13.50;1.00;;;;;;4972054;28;20058;-38
2023/12/17 02:43:41;;;;;;;6.05;2.47;;;12.90;1.00;;;;;;4973313;28;20621;-37
2023/12/17 02:46:06;;;;;;;5.80;2.00;;;13.60;1.00;;;;;;4966852;28;20105;-35
2023/12/17 02:48:33;;;;;;;6.53;2.38;;;13.70;1.00;;;;;;4971137;28;20071;-36
2023/12/17 02:50:58;;;;;;;5.65;2.15;;;13.10;1.00;;;;;;4972176;28;20411;-37
2023/12/17 02:53:24;;;;;;;5.85;2.13;;;13.70;1.00;;;;;;4976913;28;20034;-35
2023/12/17 02:55:50;;;;;;;7.32;2.80;;;13.50;1.00;;;;;;4971293;28;20093;-37
2023/12/17 02:58:15;;;;;;;7.78;2.45;;;13.70;1.00;;;;;;4970805;28;20568;-35
2023/12/17 03:00:41;;;;;;;8.00;2.70;;;13.10;1.00;;;;;;4971226;28;20391;-38
2023/12/17 03:03:06;;;;;;;6.47;2.10;;;13.40;1.00;;;;;;4976594;28;20082;-38
2023/12/17 03:05:32;;;;;;;7.28;2.67;;;13.20;1.00;;;;;;4970868;28;20175;-35
2023/12/17 03:07:58;;;;;;;7.25;2.30;;;13.50;1.00;;;;;;4989362;28;20035;-37
2023/12/17 03:10:23;;;;;;;7.95;2.38;;;13.50;1.00;;;;;;4971850;28;20403;-37
2023/12/17 03:12:49;;;;;;;6.20;2.15;;;13.00;1.00;;;;;;4972709;28;20058;-36
2023/12/17 03:15:14;;;;;;;6.72;2.65;;;13.20;1.00;;;;;;4985167;28;20052;-35
2023/12/17 03:17:40;;;;;;;8.85;2.85;;;13.20;1.00;;;;;;4970975;28;20043;-38
2023/12/17 03:20:06;;;;;;;8.77;2.55;;;13.30;1.00;;;;;;4964249;28;20418;-38
2023/12/17 03:22:32;;;;;;;9.23;2.40;;;13.30;1.00;;;;;;4965031;28;20054;-35
2023/12/17 03:24:58;;;;;;;5.90;2.20;;;13.80;1.00;;;;;;4968019;28;20030;-39
2023/12/17 03:27:23;;;;;;;6.07;2.45;;;13.60;1.00;;;;;;4968883;28;20039;-37
2023/12/17 03:29:50;;;;;;;5.55;2.28;;;13.30;1.00;;;;;;4968036;28;20458;-35
2023/12/17 03:32:15;;;;;;;6.78;2.33;;;13.10;1.00;;;;;;4972343;28;20724;-36
2023/12/17 03:34:41;;;;;;;6.60;2.22;;;13.50;1.00;;;;;;4970593;28;20074;-36
2023/12/17 03:37:07;;;;;;;7.78;2.40;;;13.60;1.00;;;;;;4969672;28;20049;-38
2023/12/17 03:39:32;;;;;;;7.57;2.60;;;13.90;1.00;;;;;;4969157;28;20066;-35
2023/12/17 03:41:58;;;;;;;8.40;3.10;;;13.70;1.00;;;;;;4990437;28;20053;-35
2023/12/17 03:44:23;;;;;;;8.15;2.58;;;13.70;1.00;;;;;;4970557;28;20047;-35
2023/12/17 03:46:49;;;;;;;9.80;2.90;;;13.90;1.00;;;;;;4969205;28;20502;-38
2023/12/17 03:49:14;;;;;;;6.65;2.10;;;13.40;1.00;;;;;;4970811;28;20065;-35
2023/12/17 03:51:40;;;;;;;6.28;2.28;;;13.10;1.00;;;;;;4974551;28;20096;-37
2023/12/17 03:54:06;;;;;;;6.95;2.80;;;13.50;1.00;;;;;;4972704;28;20035;-38
2023/12/17 03:56:31;;;;;;;7.15;3.00;;;13.90;1.00;;;;;;4969465;28;20554;-36
2023/12/17 03:58:57;;;;;;;8.10;2.63;;;13.50;1.00;;;;;;4970116;28;20069;-35
2023/12/17 04:01:23;;;;;;;8.00;2.50;;;13.10;1.00;;;;;;4971151;28;20073;-35
2023/12/17 04:03:49;;;;;;;8.07;2.30;;;13.00;1.00;;;;;;4971642;28;20398;-38
2023/12/17 04:06:14;;;;;;;6.10;2.08;;;13.50;1.00;;;;;;4967528;28;20047;-37
2023/12/17 04:08:40;;;;;;;6.78;2.17;;;13.70;1.00;;;;;;4970605;28;20113;-36
2023/12/17 04:11:06;;;;;;;9.45;2.53;;;13.70;1.00;;;;;;4970807;28;20053;-38
2023/12/17 04:13:31;;;;;;;7.90;2.63;;;13.90;1.00;;;;;;4967985;28;20042;-35
2023/12/17 04:15:57;;;;;;;9.68;2.58;;;13.50;1.00;;;;;;4969718;28;20027;-37
2023/12/17 04:18:22;;;;;;;6.75;2.60;;;13.40;1.00;;;;;;4971308;28;20062;-35
2023/12/17 04:20:48;;;;;;;5.45;2.45;;;13.30;1.00;;;;;;4970587;28;20037;-36
2023/12/17 04:23:14;;;;;;;7.85;2.50;;;13.60;1.00;;;;;;4970536;28;20383;-36
2023/12/17 04:25:40;;;;;;;5.97;2.55;;;14.10;1.00;;;;;;4969837;28;20042;-35
2023/12/17 04:28:05;;;;;;;7.45;2.50;;;13.40;1.00;;;;;;4968842;28;20405;-35
2023/12/17 04:30:31;;;;;;;6.80;2.63;;;13.60;1.00;;;;;;4970340;28;20118;-35
2023/12/17 04:32:56;;;;;;;7.32;2.75;;;13.80;1.00;;;;;;4971161;28;20061;-35
2023/12/17 04:35:22;;;;;;;6.68;2.72;;;13.50;1.00;;;;;;4970030;28;20042;-37
2023/12/17 04:37:47;;;;;;;6.32;2.42;;;13.80;1.00;;;;;;4969611;28;20055;-35
2023/12/17 04:40:14;;;;;;;7.88;2.40;;;14.10;1.00;;;;;;4970160;28;20049;-34
2023/12/17 04:42:40;;;;;;;11.85;3.58;;;13.50;1.00;;;;;;4973770;28;20121;-36
2023/12/17 04:45:06;;;;;;;5.95;2.33;;;13.20;1.00;;;;;;4968841;28;20114;-35
2023/12/17 04:47:32;;;;;;;6.75;2.40;;;13.60;1.00;;;;;;4967929;28;20070;-36
2023/12/17 04:50:00;;;;;;;7.50;2.67;;;13.80;1.00;;;;;;4969688;28;20046;-38
2023/12/17 04:52:25;;;;;;;7.43;2.38;;;13.50;1.00;;;;;;4970514;28;20129;-37
2023/12/17 04:54:51;;;;;;;7.70;2.40;;;13.00;1.00;;;;;;4969604;28;20106;-38
2023/12/17 04:57:16;;;;;;;7.40;2.67;;;14.00;1.00;;;;;;4970014;28;20035;-35
2023/12/17 04:59:42;;;;;;;6.70;2.50;;;13.30;1.00;;;;;;4970080;28;20047;-35
2023/12/17 05:02:08;;;;;;;6.50;2.22;;;13.70;1.00;;;;;;4989361;28;20508;-35
2023/12/17 05:04:33;;;;;;;7.55;3.55;;;13.60;1.00;;;;;;4970174;28;20042;-42
2023/12/17 05:06:59;;;;;;;7.18;3.35;;;13.60;1.00;;;;;;4968456;28;20031;-36
2023/12/17 05:09:24;;;;;;;7.35;3.08;;;13.20;1.00;;;;;;4970009;28;20043;-35
2023/12/17 05:11:50;;;;;;;7.90;3.13;;;13.70;1.00;;;;;;4969597;28;20054;-37
2023/12/17 05:14:16;;;;;;;7.25;2.90;;;13.80;1.00;;;;;;4970226;28;20528;-35
2023/12/17 05:16:42;;;;;;;7.75;2.88;;;13.70;1.00;;;;;;4969419;28;20034;-37
2023/12/17 05:19:09;;;;;;;6.57;2.67;;;13.60;1.00;;;;;;4970397;28;20525;-36
2023/12/17 05:21:35;;;;;;;6.63;2.75;;;13.50;1.00;;;;;;4973142;28;20149;-35
2023/12/17 05:24:02;;;;;;;6.32;2.90;;;13.50;1.00;;;;;;4968875;28;20063;-38
2023/12/17 05:26:28;;;;;;;6.43;2.70;;;13.40;1.00;;;;;;4968823;28;20047;-36
2023/12/17 05:28:54;;;;;;;8.00;2.90;;;12.80;1.00;;;;;;4969859;28;20042;-35
2023/12/17 05:31:19;;;;;;;8.70;3.20;;;13.70;1.00;;;;;;4964713;28;20402;-36
2023/12/17 05:33:46;;;;;;;8.07;3.47;;;13.10;1.00;;;;;;4965493;28;20042;-38
2023/12/17 05:36:12;;;;;;;8.45;3.53;;;14.20;1.00;;;;;;4963707;28;20055;-36
2023/12/17 05:38:38;;;;;;;8.05;3.20;;;13.50;1.00;;;;;;4969321;28;20041;-38
2023/12/17 05:41:05;;;;;;;9.48;3.42;;;13.40;1.00;;;;;;4965969;28;20145;-36
2023/12/17 05:43:30;;;;;;;6.78;3.08;;;13.10;1.00;;;;;;4972128;28;20042;-36
2023/12/17 05:45:56;;;;;;;9.15;3.60;;;13.20;1.00;;;;;;4970817;28;20042;-39
2023/12/17 05:48:21;;;;;;;9.80;3.65;;;13.80;1.00;;;;;;4972355;28;20043;-36
2023/12/17 05:50:47;;;;;;;8.50;3.10;;;13.50;1.00;;;;;;4973525;28;20102;-35
2023/12/17 05:53:13;;;;;;;8.35;3.67;;;13.00;1.00;;;;;;4974271;28;20046;-35
2023/12/17 05:55:38;;;;;;;8.65;3.53;;;13.20;1.00;;;;;;4973049;28;20102;-35
2023/12/17 05:58:04;;;;;;;10.20;4.50;;;13.70;1.00;;;;;;4973620;28;21160;-38
2023/12/17 06:00:30;;;;;;;7.55;3.65;;;13.20;1.00;;;;;;4973504;28;20047;-36
2023/12/17 06:02:55;;;;;;;10.02;3.40;;;13.30;1.00;;;;;;4974277;28;20062;-35
2023/12/17 06:05:21;;;;;;;8.52;3.40;;;14.00;1.00;;;;;;4975431;28;20049;-37
2023/12/17 06:07:47;;;;;;;9.07;3.50;;;13.40;1.00;;;;;;4973175;28;20110;-36
2023/12/17 06:10:13;;;;;;;8.70;3.78;;;13.30;1.00;;;;;;4988230;28;20436;-35
2023/12/17 06:12:39;;;;;;;9.65;3.70;;;13.50;1.00;;;;;;4973886;28;20039;-35
2023/12/17 06:15:07;;;;;;;9.30;3.65;;;;;;;;;;4971289;28;20133;-36
2023/12/17 06:17:32;;;;;;;10.77;3.92;;;12.80;1.00;;;;;;4988444;28;20065;-38
2023/12/17 06:19:58;;;;;;;9.40;3.75;;;13.30;1.00;;;;;;4972838;28;20506;-37
2023/12/17 06:22:28;;;;;;;8.15;4.05;;;13.70;1.00;;;;;;4977985;28;20046;-35
2023/12/17 06:24:53;;;;;;;7.70;3.85;;;13.20;1.00;;;;;;4972459;28;20051;-38
2023/12/17 06:27:19;;;;;;;8.95;3.53;;;13.60;1.00;;;;;;4973318;28;20030;-35
2023/12/17 06:29:47;;;;;;;7.93;4.07;;;13.50;1.00;;;;;;4973111;28;20549;-35
2023/12/17 06:32:12;;;;;;;10.18;4.38;;;13.40;1.00;;;;;;4972880;28;20035;-39
2023/12/17 06:34:38;;;;;;;9.68;3.70;;;13.70;1.00;;;;;;4972824;28;20050;-36
2023/12/17 06:37:04;;;;;;;7.47;3.67;;;13.20;1.00;;;;;;4972220;28;20039;-38
2023/12/17 06:39:29;;;;;;;10.13;4.10;;;13.80;1.00;;;;;;4972114;28;20088;-38
2023/12/17 06:41:55;;;;;;;12.82;4.25;;;13.80;1.00;;;;;;4973787;28;20502;-36
2023/12/17 06:44:21;;;;;;;6.57;3.78;;;13.20;1.00;;;;;;4969977;28;20042;-36
2023/12/17 06:46:48;;;;;;;8.43;3.65;;;13.60;1.00;;;;;;4972080;28;20037;-36
2023/12/17 06:49:14;;;;;;;9.48;3.55;;;13.70;1.00;;;;;;4971292;28;20045;-36
2023/12/17 06:51:40;;;;;;;10.77;3.72;;;13.40;1.00;;;;;;4975341;28;20410;-37
2023/12/17 06:54:06;;;;;;;10.13;3.72;;;13.50;1.00;;;;;;4969611;28;20499;-37
2023/12/17 06:56:32;;;;;;;11.20;3.40;;;13.50;1.00;;;;;;4969800;28;20053;-39
2023/12/17 06:58:57;;;;;;;7.50;3.60;;;13.00;1.00;;;;;;4972084;28;20039;-35
2023/12/17 07:01:23;;;;;;;7.03;3.45;;;13.30;1.00;;;;;;4971560;28;20398;-35
2023/12/17 07:03:50;;;;;;;7.10;3.25;;;13.40;1.00;;;;;;4971289;28;20066;-38
2023/12/17 07:06:16;;;;;;;9.70;3.92;;;13.80;1.00;;;;;;4938476;28;20062;-35
2023/12/17 07:08:41;;;;;;;12.32;4.35;;;13.50;1.00;;;;;;4972269;28;20508;-36
2023/12/17 07:11:07;;;;;;;7.63;3.40;;;13.70;1.00;;;;;;4970769;28;20050;-41
2023/12/17 07:13:33;;;;;;;10.10;3.83;;;13.60;1.00;;;;;;4966864;28;20089;-39
2023/12/17 07:15:59;;;;;;;10.13;3.65;;;13.20;1.00;;;;;;4971352;28;20038;-39
2023/12/17 07:18:24;;;;;;;9.43;3.70;;;13.60;1.00;;;;;;4972344;28;20549;-36
2023/12/17 07:20:50;;;;;;;8.60;3.20;;;13.50;1.00;;;;;;4970904;28;20046;-36
2023/12/17 07:23:16;;;;;;;9.55;3.33;;;13.30;1.00;;;;;;4973311;28;20042;-35
2023/12/17 07:25:42;;;;;;;8.13;3.22;;;13.30;1.00;;;;;;4964540;28;20505;-36
2023/12/17 07:28:07;;;;;;;10.50;3.40;;;13.50;1.00;;;;;;4971448;28;20045;-38
2023/12/17 07:30:34;;;;;;;8.32;3.17;;;13.90;1.00;;;;;;4971856;28;20038;-35
2023/12/17 07:33:00;;;;;;;7.38;3.35;;;13.30;1.00;;;;;;4988272;28;20115;-38
2023/12/17 07:35:26;;;;;;;10.13;4.00;;;13.70;1.00;;;;;;4969664;28;20034;-38
2023/12/17 07:37:51;;;;;;;8.60;3.22;;;13.90;1.00;;;;;;4971937;28;20038;-36
2023/12/17 07:40:17;;;;;;;11.10;3.83;;;13.20;1.00;;;;;;4971178;28;20066;-35
2023/12/17 07:42:43;;;;;;;13.32;4.25;;;14.00;1.00;;;;;;4973954;28;20030;-36
2023/12/17 07:45:09;;;;;;;12.07;3.92;;;13.60;1.00;;;;;;4970604;28;20142;-39
2023/12/17 07:47:35;;;;;;;28.95;8.13;;;13.70;1.00;;;;;;4971798;28;20039;-38
2023/12/17 07:50:00;;;;;;;38.97;13.02;;;13.60;1.00;;;;;;4969597;28;20061;-35
2023/12/17 07:52:26;;;;;;;37.28;12.25;;;13.90;1.00;;;;;;4964208;28;20425;-36
2023/12/17 07:54:55;;;;;;;30.52;9.35;;;13.40;1.00;;;;;;4966786;28;20447;-36
2023/12/17 07:57:20;;;;;;;30.33;10.05;;;13.90;1.00;;;;;;4968452;28;20047;-36
2023/12/17 07:59:51;;;;;;;35.45;11.18;;;13.20;1.00;;;;;;4968729;28;20043;-36
2023/12/17 08:02:16;;;;;;;29.08;10.40;;;14.00;1.00;;;;;;4969374;28;20074;-39
2023/12/17 08:04:42;;;;;;;36.20;10.20;;;13.80;1.00;;;;;;4968459;28;20043;-35
2023/12/17 08:07:11;;;;;;;21.85;9.38;;;14.30;1.00;;;;;;4949027;28;20053;-35
2023/12/17 08:09:36;;;;;;;20.80;9.27;;;14.00;1.00;;;;;;4961649;28;20133;-36
2023/12/17 08:12:02;;;;;;;24.92;9.88;;;14.40;1.00;;;;;;4971202;28;20065;-36
2023/12/17 08:14:29;;;;;;;22.27;8.90;;;13.60;1.00;;;;;;4965428;28;20076;-39
2023/12/17 08:16:55;;;;;;;22.38;10.07;;;13.80;1.00;;;;;;4963612;28;20274;-39
2023/12/17 08:19:20;;;;;;;18.98;8.98;;;13.80;1.00;;;;;;4967272;28;20509;-37
2023/12/17 08:21:47;;;;;;;20.70;9.52;;;13.80;1.00;;;;;;4970966;28;20034;-36
2023/12/17 08:24:12;;;;;;;20.10;9.13;;;13.70;1.00;;;;;;4968514;28;20503;-37
2023/12/17 08:26:38;;;;;;;16.10;7.30;;;14.10;1.00;;;;;;4969154;28;20066;-36
2023/12/17 08:29:03;;;;;;;17.58;9.50;;;13.70;1.00;;;;;;4967832;28;20053;-36
2023/12/17 08:31:29;;;;;;;17.20;8.32;;;14.30;1.00;;;;;;4969057;28;20085;-36
2023/12/17 08:33:55;;;;;;;13.13;8.27;;;14.10;1.00;;;;;;4973269;28;20050;-37
2023/12/17 08:36:25;;;;;;;12.70;8.00;;;14.20;1.00;;;;;;4984035;28;20055;-36
2023/12/17 08:38:51;;;;;;;14.77;8.25;;;14.20;1.00;;;;;;4970561;28;20097;-37
2023/12/17 08:41:16;;;;;;;14.07;7.60;;;14.50;1.00;;;;;;4969212;28;20051;-38
2023/12/17 08:43:42;;;;;;;14.52;7.45;;;13.30;1.00;;;;;;4965217;28;20074;-36
2023/12/17 08:46:07;;;;;;;12.07;7.38;;;13.90;1.00;;;;;;4966021;28;20474;-37
2023/12/17 08:48:33;;;;;;;16.67;7.45;;;13.50;1.00;;;;;;4970523;28;20126;-38
2023/12/17 08:50:59;;;;;;;12.57;6.57;;;13.70;1.00;;;;;;4970124;28;20042;-36
2023/12/17 08:53:26;;;;;;;12.70;6.45;;;13.40;1.00;;;;;;4971107;28;20078;-36
2023/12/17 08:55:52;;;;;;;14.35;6.97;;;13.20;1.00;;;;;;4969072;28;20078;-36
2023/12/17 08:58:18;;;;;;;12.80;6.70;;;13.90;1.00;;;;;;4968830;28;20081;-35
2023/12/17 09:00:44;;;;;;;13.30;6.65;;;13.50;1.00;;;;;;4970089;28;20066;-34
2023/12/17 09:03:09;;;;;;;11.95;5.50;;;13.40;1.00;;;;;;4975426;28;20039;-37
2023/12/17 09:05:35;;;;;;;11.10;6.00;;;13.60;1.00;;;;;;4969695;28;20034;-38
2023/12/17 09:08:01;;;;;;;12.23;6.07;;;13.60;1.00;;;;;;4970498;28;20039;-35
2023/12/17 09:10:27;;;;;;;11.52;5.60;;;13.90;1.00;;;;;;4962427;28;20166;-39
2023/12/17 09:12:54;;;;;;;13.25;5.35;;;13.70;1.00;;;;;;4961668;28;20117;-38
2023/12/17 09:15:21;;;;;;;11.27;5.45;;;13.80;1.00;;;;;;4963685;28;20388;-35
2023/12/17 09:17:46;;;;;;;11.40;5.07;;;13.10;1.00;;;;;;4963097;28;20525;-34
2023/12/17 09:20:14;;;;;;;11.13;4.10;;;14.00;1.00;;;;;;4966943;28;20034;-39
2023/12/17 09:22:40;;;;;;;12.52;4.63;;;13.30;1.00;;;;;;4969627;28;20126;-37
2023/12/17 09:25:06;;;;;;;11.05;4.75;;;14.10;1.00;;;;;;4971271;28;20065;-37
2023/12/17 09:27:32;;;;;;;12.82;4.68;;;13.60;1.00;;;;;;4970425;28;20046;-37
2023/12/17 09:29:57;;;;;;;15.43;5.20;;;13.70;1.00;;;;;;4971830;28;20043;-36
2023/12/17 09:32:23;;;;;;;11.80;5.07;;;13.10;1.00;;;;;;4972573;28;20074;-35
2023/12/17 09:34:49;;;;;;;8.40;4.13;;;13.60;1.00;;;;;;4963894;28;20047;-36
2023/12/17 09:37:14;;;;;;;9.18;4.32;;;13.90;1.00;;;;;;4973644;28;20050;-36
2023/12/17 09:39:40;;;;;;;10.82;4.93;;;13.40;1.00;;;;;;4968507;28;20137;-34
2023/12/17 09:42:06;;;;;;;11.27;5.30;;;13.10;1.00;;;;;;4973417;28;20042;-34
2023/12/17 09:44:32;;;;;;;8.70;4.40;;;13.90;1.00;;;;;;4978012;28;20491;-35
2023/12/17 09:46:58;;;;;;;10.98;4.50;;;14.10;1.00;;;;;;4961642;28;20038;-34
2023/12/17 09:49:23;;;;;;;13.15;5.72;;;13.00;1.00;;;;;;4971501;28;20030;-34
2023/12/17 09:52:07;;;;;;;12.30;5.20;;;13.50;1.00;;;;;;4966454;28;20041;-38
2023/12/17 09:54:32;;;;;;;10.93;5.13;;;13.70;1.00;;;;;;4959749;28;20526;-36
2023/12/17 09:57:00;;;;;;;14.65;5.28;;;13.40;1.00;;;;;;4969461;28;20074;-38
2023/12/17 09:59:26;;;;;;;13.73;5.72;;;13.30;1.00;;;;;;4965708;28;20050;-35
2023/12/17 10:01:52;;;;;;;13.77;5.30;;;13.00;1.00;;;;;;4961972;28;20042;-34
2023/12/17 10:04:24;;;;;;;11.15;5.00;;;13.20;1.00;;;;;;4960294;28;20031;-34
2023/12/17 10:06:51;;;;;;;12.70;4.65;;;13.20;1.00;;;;;;4967896;28;20442;-35
2023/12/17 10:09:17;;;;;;;22.25;5.57;;;13.90;1.00;;;;;;4969360;28;20038;-38
2023/12/17 10:11:42;;;;;;;15.80;5.45;;;13.20;1.00;;;;;;4973180;28;20558;-34
2023/12/17 10:14:21;;;;;;;13.85;5.60;;;13.00;1.00;;;;;;4972119;28;20388;-35
2023/12/17 10:16:49;;;;;;;16.73;5.38;;;14.20;1.00;;;;;;4965755;28;20039;-38
2023/12/17 10:19:15;;;;;;;15.30;5.55;;;13.10;1.00;;;;;;4967913;28;20430;-34
2023/12/17 10:21:40;;;;;;;14.13;5.35;;;13.70;1.00;;;;;;4980289;28;20342;-36
2023/12/17 10:24:06;;;;;;;13.07;4.90;;;13.70;1.00;;;;;;4970773;28;20125;-36
2023/12/17 10:26:46;;;;;;;14.73;5.60;;;13.90;1.00;;;;;;4964736;28;20046;-37
2023/12/17 10:29:18;;;;;;;14.85;6.28;;;13.60;1.00;;;;;;4982131;28;20102;-35
2023/12/17 10:31:44;;;;;;;12.38;5.43;;;13.50;1.00;;;;;;4965097;28;20034;-35
2023/12/17 10:34:22;;;;;;;13.55;6.38;;;13.30;1.00;;;;;;4965716;28;20043;-37
2023/12/17 10:36:49;;;;;;;14.98;6.13;;;13.40;1.00;;;;;;4963652;28;20043;-35
2023/12/17 10:39:16;;;;;;;14.38;5.63;;;13.20;1.00;;;;;;4965796;28;20447;-38
2023/12/17 10:41:48;;;;;;;15.55;5.78;;;13.10;1.00;;;;;;4967982;28;20134;-35
2023/12/17 10:44:15;;;;;;;14.63;6.60;;;13.20;1.00;;;;;;4967099;28;20380;-40
2023/12/17 10:46:45;;;;;;;16.02;6.43;;;13.10;1.00;;;;;;4962617;28;20442;-37
2023/12/17 10:49:11;;;;;;;17.20;6.53;;;13.40;1.00;;;;;;4968213;28;20094;-37
2023/12/17 10:51:42;;;;;;;15.35;6.63;;;12.90;1.00;;;;;;4970447;28;20383;-37
2023/12/17 10:54:09;;;;;;;15.63;6.22;;;13.40;1.00;;;;;;4968862;28;20047;-35
2023/12/17 10:56:39;;;;;;;13.85;6.30;;;13.10;1.00;;;;;;4967069;28;20138;-35
2023/12/17 10:59:08;;;;;;;18.67;7.28;;;13.70;1.00;;;;;;4964127;28;20042;-35
2023/12/17 11:01:36;;;;;;;17.73;6.97;;;13.40;1.00;;;;;;4966300;28;20093;-34
2023/12/17 11:04:03;;;;;;;16.50;7.80;;;13.00;1.00;;;;;;4965786;28;20043;-36
2023/12/17 11:06:29;;;;;;;14.55;7.10;;;13.40;1.00;;;;;;4962923;28;20074;-34
2023/12/17 11:08:54;;;;;;;18.73;7.35;;;13.10;1.00;;;;;;4964950;28;20465;-35
2023/12/17 11:11:22;;;;;;;13.85;6.57;;;13.50;1.00;;;;;;4964487;28;20047;-36
2023/12/17 11:13:48;;;;;;;18.38;7.57;;;13.60;1.00;;;;;;4966701;28;20560;-35
2023/12/17 11:16:28;;;;;;;16.08;6.78;;;13.60;1.00;;;;;;4967626;28;20053;-39
2023/12/17 11:18:58;;;;;;;14.20;6.22;;;13.10;1.00;;;;;;4971088;28;20043;-34
2023/12/17 11:21:24;;;;;;;18.13;7.00;;;13.00;1.00;;;;;;4967097;28;20052;-35
2023/12/17 11:23:51;;;;;;;15.35;6.53;;;13.60;1.00;;;;;;4965487;28;20034;-35
2023/12/17 11:26:18;;;;;;;12.30;5.70;;;13.50;1.00;;;;;;4969584;28;20038;-35
2023/12/17 11:28:46;;;;;;;15.75;5.97;;;12.90;1.00;;;;;;4962825;28;20549;-36
2023/12/17 11:31:12;;;;;;;13.00;6.60;;;13.20;1.00;;;;;;4969074;28;20047;-34
2023/12/17 11:33:39;;;;;;;14.25;6.40;;;13.10;1.00;;;;;;4968494;28;20047;-35
2023/12/17 11:36:07;;;;;;;12.77;6.72;;;13.70;1.00;;;;;;4969895;28;20714;-38
2023/12/17 11:38:33;;;;;;;16.02;6.88;;;13.30;1.00;;;;;;4978918;28;20038;-35
2023/12/17 11:40:58;;;;;;;15.98;6.38;;;13.40;1.00;;;;;;4959061;28;20043;-34
2023/12/17 11:43:25;;;;;;;12.27;6.60;;;13.00;1.00;;;;;;4971461;28;20046;-37
2023/12/17 11:45:51;;;;;;;16.33;6.70;;;;;;;;;;4962353;28;20049;-38
2023/12/17 11:48:21;;;;;;;14.88;6.68;;;13.00;1.00;;;;;;4966293;28;20043;-35
2023/12/17 11:50:56;;;;;;;15.80;6.22;;;13.40;1.00;;;;;;4965762;28;20038;-34
2023/12/17 11:53:23;;;;;;;13.15;7.00;;;13.50;1.00;;;;;;4982968;28;20046;-35
2023/12/17 11:56:00;;;;;;;14.25;6.97;;;12.90;1.00;;;;;;4965311;28;20047;-38
2023/12/17 11:58:25;;;;;;;14.80;7.05;;;12.90;1.00;;;;;;4962330;28;20042;-36
2023/12/17 12:01:06;;;;;;;15.45;7.57;;;13.10;1.00;;;;;;4965273;28;20035;-35
2023/12/17 12:03:32;;;;;;;13.70;6.60;;;13.00;1.00;;;;;;4949719;28;20055;-34
2023/12/17 12:05:59;;;;;;;11.73;6.18;;;13.40;1.00;;;;;;4962699;28;20046;-34
2023/12/17 12:08:26;;;;;;;14.38;7.68;;;13.80;1.00;;;;;;4966957;28;20042;-39
2023/12/17 12:10:52;;;;;;;16.75;7.20;;;12.90;1.00;;;;;;4967339;28;20090;-36
2023/12/17 12:13:18;;;;;;;13.43;7.50;;;12.80;1.00;;;;;;4967891;28;20454;-36
2023/12/17 12:15:44;;;;;;;16.10;6.88;;;13.00;1.00;;;;;;4964467;28;20034;-39
2023/12/17 12:18:22;;;;;;;13.35;7.32;;;12.60;1.00;;;;;;4967202;28;20065;-38
2023/12/17 12:20:48;;;;;;;12.98;6.47;;;13.10;1.00;;;;;;4960761;28;20035;-37
2023/12/17 12:23:14;;;;;;;15.93;7.45;;;12.70;1.00;;;;;;4966598;28;20039;-39
2023/12/17 12:25:40;;;;;;;11.82;6.32;;;12.70;1.00;;;;;;4965114;28;20047;-35
2023/12/17 12:28:20;;;;;;;12.48;6.68;;;13.20;1.00;;;;;;4964419;28;20553;-36
2023/12/17 12:30:48;;;;;;;13.85;6.57;;;13.20;1.00;;;;;;4965259;28;20086;-36
2023/12/17 12:33:15;;;;;;;11.63;6.72;;;12.90;1.00;;;;;;4966430;28;20071;-35
2023/12/17 12:35:42;;;;;;;14.73;7.57;;;13.50;1.00;;;;;;4968369;28;20045;-38
2023/12/17 12:38:24;;;;;;;13.30;7.05;;;;;;;;;;4958251;28;20038;-35
2023/12/17 12:40:52;;;;;;;10.73;6.65;;;12.80;1.00;;;;;;4962760;28;20526;-38
2023/12/17 12:43:20;;;;;;;13.52;7.57;;;13.20;1.00;;;;;;4972001;28;20055;-36
2023/12/17 12:45:45;;;;;;;14.85;7.47;;;12.80;1.00;;;;;;4969786;28;20043;-38
2023/12/17 12:48:18;;;;;;;14.02;7.07;;;12.70;1.00;;;;;;4968171;28;20046;-36